Time,TemperatureF,DewpointF,PressureIn,WindDirection,WindDirectionDegrees,WindSpeedMPH,WindSpeedGustMPH,Humidity,HourlyPrecipIn,Conditions,Clouds,dailyrainin,SolarRadiationWatts/m^2,SoftwareType,DateUTC
2013-03-17 00:02:00,13.0,-2.0,-100.00,NNW,344,7.0,12.0,50,0.00,,,0.02,0.000000,,2013-03-17 05:02:00,
2013-03-17 00:32:00,10.0,-5.0,-100.00,NNW,348,5.0,10.0,50,0.00,,,0.01,0.000000,,2013-03-17 05:32:00,
2013-03-17 00:42:00,10.0,-5.0,-100.00,NNW,348,5.0,10.0,50,0.00,,,0.01,0.000000,,2013-03-17 05:42:00,
2013-03-17 00:52:00,10.0,-5.0,-100.00,NNW,348,5.0,10.0,50,0.00,,,0.01,0.000000,,2013-03-17 05:52:00,
2013-03-17 01:02:00,10.0,-5.0,-100.00,NNW,348,5.0,10.0,50,0.00,,,0.01,0.000000,,2013-03-17 06:02:00,
2013-03-17 01:32:00,8.0,-5.0,-100.00,North,7,4.0,11.0,55,0.00,,,0.00,0.000000,,2013-03-17 06:32:00,
2013-03-17 01:42:00,8.0,-5.0,-100.00,North,7,4.0,11.0,55,0.00,,,0.00,0.000000,,2013-03-17 06:42:00,
2013-03-17 01:52:00,8.0,-5.0,-100.00,North,7,4.0,11.0,55,0.00,,,0.00,0.000000,,2013-03-17 06:52:00,
2013-03-17 02:02:00,8.0,-5.0,-100.00,North,7,4.0,11.0,55,0.00,,,0.00,0.000000,,2013-03-17 07:02:00,
2013-03-17 02:32:00,2.0,-7.0,-100.00,NW,313,2.0,7.0,64,0.00,,,0.00,0.000000,,2013-03-17 07:32:00,
2013-03-17 02:42:00,2.0,-7.0,-100.00,NW,313,2.0,7.0,64,0.00,,,0.00,0.000000,,2013-03-17 07:42:00,
2013-03-17 02:52:00,2.0,-7.0,-100.00,NW,313,2.0,7.0,64,0.00,,,0.00,0.000000,,2013-03-17 07:52:00,
2013-03-17 03:02:00,2.0,-7.0,-100.00,NW,313,2.0,7.0,64,0.00,,,0.00,0.000000,,2013-03-17 08:02:00,
2013-03-17 03:33:00,-3.0,-9.0,-100.00,NNE,22,2.0,4.0,75,0.00,,,0.00,0.000000,,2013-03-17 08:33:00,
2013-03-17 03:42:00,-3.0,-9.0,-100.00,NNE,22,2.0,4.0,75,0.00,,,0.00,0.000000,,2013-03-17 08:42:00,
2013-03-17 03:52:00,-3.0,-9.0,-100.00,NNE,22,2.0,4.0,75,0.00,,,0.00,0.000000,,2013-03-17 08:52:00,
2013-03-17 04:02:00,-3.0,-9.0,-100.00,NNE,22,2.0,4.0,75,0.00,,,0.00,0.000000,,2013-03-17 09:02:00,
2013-03-17 04:33:00,-6.0,-11.0,-100.00,NNE,32,1.0,3.0,78,0.00,,,0.00,0.000000,,2013-03-17 09:33:00,
2013-03-17 04:43:00,-6.0,-11.0,-100.00,NNE,32,1.0,3.0,78,0.00,,,0.00,0.000000,,2013-03-17 09:43:00,
2013-03-17 04:53:00,-6.0,-11.0,-100.00,NNE,32,1.0,3.0,78,0.00,,,0.00,0.000000,,2013-03-17 09:53:00,
2013-03-17 05:03:00,-6.0,-11.0,-100.00,NNE,32,1.0,3.0,78,0.00,,,0.00,0.000000,,2013-03-17 10:03:00,
2013-03-17 05:33:00,-8.0,-14.0,-100.00,NW,311,0.0,2.0,76,0.00,,,0.00,0.000000,,2013-03-17 10:33:00,
2013-03-17 05:42:00,-8.0,-14.0,-100.00,NW,311,0.0,2.0,76,0.00,,,0.00,0.000000,,2013-03-17 10:42:00,
2013-03-17 05:52:00,-8.0,-14.0,-100.00,NW,311,0.0,2.0,76,0.00,,,0.00,0.000000,,2013-03-17 10:52:00,
2013-03-17 06:02:00,-8.0,-14.0,-100.00,NW,311,0.0,2.0,76,0.00,,,0.00,0.000000,,2013-03-17 11:02:00,
2013-03-17 06:32:00,-10.0,-15.0,-100.00,NNE,24,2.0,3.0,77,0.00,,,0.00,0.000000,,2013-03-17 11:32:00,
2013-03-17 06:43:00,-10.0,-15.0,-100.00,NNE,24,2.0,3.0,77,0.00,,,0.00,0.000000,,2013-03-17 11:43:00,
2013-03-17 06:52:00,-10.0,-15.0,-100.00,NNE,24,2.0,3.0,77,0.00,,,0.00,0.000000,,2013-03-17 11:52:00,
2013-03-17 07:02:00,-10.0,-15.0,-100.00,NNE,24,2.0,3.0,77,0.00,,,0.00,0.000000,,2013-03-17 12:02:00,
2013-03-17 07:33:00,-10.0,-16.0,-100.00,NNE,16,2.0,3.0,73,0.00,,,0.00,0.000000,,2013-03-17 12:33:00,
2013-03-17 07:43:00,-10.0,-16.0,-100.00,NNE,16,2.0,3.0,73,0.00,,,0.00,0.000000,,2013-03-17 12:43:00,
2013-03-17 07:52:00,-10.0,-16.0,-100.00,NNE,16,2.0,3.0,73,0.00,,,0.00,0.000000,,2013-03-17 12:52:00,
2013-03-17 08:02:00,-10.0,-16.0,-100.00,NNE,16,2.0,3.0,73,0.00,,,0.00,0.000000,,2013-03-17 13:02:00,
2013-03-17 08:32:00,-3.0,-9.0,-100.00,ENE,58,3.0,5.0,74,0.00,,,0.00,18.000000,,2013-03-17 13:32:00,
2013-03-17 08:43:00,-3.0,-9.0,-100.00,ENE,58,3.0,5.0,74,0.00,,,0.00,18.000000,,2013-03-17 13:43:00,
2013-03-17 08:52:00,-3.0,-9.0,-100.00,ENE,58,3.0,5.0,74,0.00,,,0.00,18.000000,,2013-03-17 13:52:00,
2013-03-17 09:02:00,-3.0,-9.0,-100.00,ENE,58,3.0,5.0,74,0.00,,,0.00,18.000000,,2013-03-17 14:02:00,
2013-03-17 09:33:00,7.0,-4.0,-100.00,ESE,102,5.0,7.0,60,0.00,,,0.00,157.000000,,2013-03-17 14:33:00,
2013-03-17 09:42:00,7.0,-4.0,-100.00,ESE,102,5.0,7.0,60,0.00,,,0.00,157.000000,,2013-03-17 14:42:00,
2013-03-17 09:53:00,7.0,-4.0,-100.00,ESE,102,5.0,7.0,60,0.00,,,0.00,157.000000,,2013-03-17 14:53:00,
2013-03-17 10:02:00,7.0,-4.0,-100.00,ESE,102,5.0,7.0,60,0.00,,,0.00,157.000000,,2013-03-17 15:02:00,
2013-03-17 10:33:00,13.0,-3.0,-100.00,East,95,5.0,11.0,48,0.00,,,0.00,321.000000,,2013-03-17 15:33:00,
2013-03-17 10:43:00,13.0,-3.0,-100.00,East,95,5.0,11.0,48,0.00,,,0.00,321.000000,,2013-03-17 15:43:00,
2013-03-17 10:53:00,13.0,-3.0,-100.00,East,95,5.0,11.0,48,0.00,,,0.00,321.000000,,2013-03-17 15:53:00,
2013-03-17 11:03:00,13.0,-3.0,-100.00,East,95,5.0,11.0,48,0.00,,,0.00,321.000000,,2013-03-17 16:03:00,
2013-03-17 11:33:00,20.0,-1.0,-100.00,SE,131,8.0,16.0,39,0.00,,,0.00,491.000000,,2013-03-17 16:33:00,
2013-03-17 11:43:00,20.0,-1.0,-100.00,SE,131,8.0,16.0,39,0.00,,,0.00,491.000000,,2013-03-17 16:43:00,
2013-03-17 11:52:00,20.0,-1.0,-100.00,SE,131,8.0,16.0,39,0.00,,,0.00,491.000000,,2013-03-17 16:52:00,
2013-03-17 12:02:00,20.0,-1.0,-100.00,SE,131,8.0,16.0,39,0.00,,,0.00,491.000000,,2013-03-17 17:02:00,
2013-03-17 12:33:00,20.0,-1.0,-100.00,SE,130,9.0,16.0,38,0.00,,,0.00,489.000000,,2013-03-17 17:33:00,
2013-03-17 12:42:00,20.0,-1.0,-100.00,SE,130,9.0,16.0,38,0.00,,,0.00,489.000000,,2013-03-17 17:42:00,
2013-03-17 12:53:00,20.0,-1.0,-100.00,SE,130,9.0,16.0,38,0.00,,,0.00,489.000000,,2013-03-17 17:53:00,
2013-03-17 13:02:00,20.0,-1.0,-100.00,SE,130,9.0,16.0,38,0.00,,,0.00,489.000000,,2013-03-17 18:02:00,
2013-03-17 13:32:00,22.0,0.0,-100.00,ESE,123,9.0,15.0,37,0.00,,,0.00,468.000000,,2013-03-17 18:32:00,
2013-03-17 13:42:00,22.0,0.0,-100.00,ESE,123,9.0,15.0,37,0.00,,,0.00,468.000000,,2013-03-17 18:42:00,
2013-03-17 13:52:00,22.0,0.0,-100.00,ESE,123,9.0,15.0,37,0.00,,,0.00,468.000000,,2013-03-17 18:52:00,
2013-03-17 14:02:00,22.0,0.0,-100.00,ESE,123,9.0,15.0,37,0.00,,,0.00,468.000000,,2013-03-17 19:02:00,
2013-03-17 14:33:00,24.0,1.0,-100.00,SE,130,8.0,15.0,36,0.00,,,0.00,504.000000,,2013-03-17 19:33:00,
2013-03-17 14:42:00,24.0,1.0,-100.00,SE,130,8.0,15.0,36,0.00,,,0.00,504.000000,,2013-03-17 19:42:00,
2013-03-17 14:53:00,24.0,1.0,-100.00,SE,130,8.0,15.0,36,0.00,,,0.00,504.000000,,2013-03-17 19:53:00,
2013-03-17 15:02:00,24.0,1.0,-100.00,SE,130,8.0,15.0,36,0.00,,,0.00,504.000000,,2013-03-17 20:02:00,
2013-03-17 15:33:00,27.0,1.0,-100.00,SE,124,8.0,15.0,32,0.00,,,0.00,644.000000,,2013-03-17 20:33:00,
2013-03-17 15:43:00,27.0,1.0,-100.00,SE,124,8.0,15.0,32,0.00,,,0.00,644.000000,,2013-03-17 20:43:00,
2013-03-17 15:52:00,27.0,1.0,-100.00,SE,124,8.0,15.0,32,0.00,,,0.00,644.000000,,2013-03-17 20:52:00,
2013-03-17 16:03:00,27.0,1.0,-100.00,SE,124,8.0,15.0,32,0.00,,,0.00,644.000000,,2013-03-17 21:03:00,
2013-03-17 16:33:00,26.0,-1.0,-100.00,SE,134,7.0,15.0,30,0.00,,,0.00,538.000000,,2013-03-17 21:33:00,
2013-03-17 16:43:00,26.0,-1.0,-100.00,SE,134,7.0,15.0,30,0.00,,,0.00,538.000000,,2013-03-17 21:43:00,
2013-03-17 16:52:00,26.0,-1.0,-100.00,SE,134,7.0,15.0,30,0.00,,,0.00,538.000000,,2013-03-17 21:52:00,
2013-03-17 17:03:00,26.0,-1.0,-100.00,SE,134,7.0,15.0,30,0.00,,,0.00,538.000000,,2013-03-17 22:03:00,
2013-03-17 17:33:00,27.0,2.0,-100.00,ESE,123,8.0,14.0,34,0.00,,,0.00,275.000000,,2013-03-17 22:33:00,
2013-03-17 17:42:00,27.0,2.0,-100.00,ESE,123,8.0,14.0,34,0.00,,,0.00,275.000000,,2013-03-17 22:42:00,
2013-03-17 17:53:00,27.0,2.0,-100.00,ESE,123,8.0,14.0,34,0.00,,,0.00,275.000000,,2013-03-17 22:53:00,
2013-03-17 18:02:00,27.0,2.0,-100.00,ESE,123,8.0,14.0,34,0.00,,,0.00,275.000000,,2013-03-17 23:02:00,
2013-03-17 18:33:00,25.0,4.0,-100.00,SE,126,6.0,13.0,39,0.00,,,0.00,188.000000,,2013-03-17 23:33:00,
2013-03-17 18:43:00,25.0,4.0,-100.00,SE,126,6.0,13.0,39,0.00,,,0.00,188.000000,,2013-03-17 23:43:00,
2013-03-17 18:53:00,25.0,4.0,-100.00,SE,126,6.0,13.0,39,0.00,,,0.00,188.000000,,2013-03-17 23:53:00,
2013-03-17 19:03:00,25.0,4.0,-100.00,SE,126,6.0,13.0,39,0.00,,,0.00,188.000000,,2013-03-18 00:03:00,
2013-03-17 20:33:00,23.0,5.0,-100.00,ESE,112,6.0,12.0,46,-99.99,,,0.00,1.000000,,2013-03-18 01:33:00,
2013-03-17 20:42:00,23.0,5.0,-100.00,ESE,112,6.0,12.0,46,-99.99,,,0.00,1.000000,,2013-03-18 01:42:00,
2013-03-17 20:52:00,23.0,5.0,-100.00,ESE,112,6.0,12.0,46,-99.99,,,0.00,1.000000,,2013-03-18 01:52:00,
2013-03-17 21:02:00,23.0,5.0,-100.00,ESE,112,6.0,12.0,46,-99.99,,,0.00,1.000000,,2013-03-18 02:02:00,
2013-03-17 21:32:00,22.0,6.0,-100.00,ESE,103,6.0,10.0,50,0.00,,,0.00,0.000000,,2013-03-18 02:32:00,
2013-03-17 21:42:00,22.0,6.0,-100.00,ESE,103,6.0,10.0,50,0.00,,,0.00,0.000000,,2013-03-18 02:42:00,
2013-03-17 21:52:00,22.0,6.0,-100.00,ESE,103,6.0,10.0,50,0.00,,,0.00,0.000000,,2013-03-18 02:52:00,
2013-03-17 22:02:00,22.0,6.0,-100.00,ESE,103,6.0,10.0,50,0.00,,,0.00,0.000000,,2013-03-18 03:02:00,
2013-03-17 22:33:00,21.0,6.0,-100.00,SE,125,3.0,10.0,52,0.00,,,0.00,0.000000,,2013-03-18 03:33:00,
2013-03-17 22:42:00,21.0,6.0,-100.00,SE,125,3.0,10.0,52,0.00,,,0.00,0.000000,,2013-03-18 03:42:00,
2013-03-17 22:53:00,21.0,6.0,-100.00,SE,125,3.0,10.0,52,0.00,,,0.00,0.000000,,2013-03-18 03:53:00,
2013-03-17 23:03:00,21.0,6.0,-100.00,SE,125,3.0,10.0,52,0.00,,,0.00,0.000000,,2013-03-18 04:03:00,
2013-03-17 23:33:00,22.0,8.0,-100.00,SE,127,5.0,11.0,55,0.00,,,0.00,0.000000,,2013-03-18 04:33:00,
2013-03-17 23:42:00,22.0,8.0,-100.00,SE,127,5.0,11.0,55,0.00,,,0.00,0.000000,,2013-03-18 04:42:00,
2013-03-17 23:53:00,22.0,8.0,-100.00,SE,127,5.0,11.0,55,0.00,,,0.00,0.000000,,2013-03-18 04:53:00,